Pays
Station

 

Conditions  météo  pour  Madrid/Getafe  -  Espagne    Espagne

  
9 °C
    
 
 

METAR pour Madrid/Getafe :

LEGT 231900Z 23013KT 200V260 9999 FEW019CB SCT021 09/06 Q1000

 

Voici le bulletin pour Madrid/Getafe - Espagne.
 
Le bulletin a été fait il y a 3 heures et 16 minutes, à 19:00 UTC .
Le vent soufflait à la vitesse de 6.7 mètres par seconde de Sud-ouest (230°), variant entre Sud/Sud-ouest (200°) et Ouest (260°).
 
La température était de 9 °C, avec un point de rosée à 6 °C.
La pression atmosphérique était de 1000 hPa.
L'humidité relative était de 81.5%.
 
Il y avait 1 à 2/8ème cumulonimbus de nébulosité à une hauteur de 579 mètres et 3 à 4/8ème de nébulosité à une hauteur de 640 mètres.
 
La visibilité globale était de supérieure à 10 kilomètres.
 

 
 
 

Pays :   A   B   C   D   E   F   G   H   I   J   K   L   M   N   O   P   Q   R   S   T   U   V   W   Y   Z

 

Partenaires :  Info Météo avec Met'info
Météo Marine avec MeteoMarine.net
Infos Site  |  Infos Légales  |  Crédits  |  Confidentialité
Contactez-nous  |  Ajouter aux favoris
© 2013-2019 METAR - Tous droits réservés